sensor_id;sensor_type;location;lat;lon;timestamp;pressure;altitude;pressure_sealevel;temperature;humidity
82353;BME280;71954;47.430;18.920;2024-02-15T00:01:42;100603.50;;;7.70;67.44
82353;BME280;71954;47.430;18.920;2024-02-15T00:04:09;100595.47;;;7.72;67.26
82353;BME280;71954;47.430;18.920;2024-02-15T00:06:37;100590.97;;;7.74;66.94
82353;BME280;71954;47.430;18.920;2024-02-15T00:09:04;100596.09;;;7.77;66.78
82353;BME280;71954;47.430;18.920;2024-02-15T00:11:31;100601.09;;;7.82;66.77
82353;BME280;71954;47.430;18.920;2024-02-15T00:13:59;100594.66;;;7.86;67.16
82353;BME280;71954;47.430;18.920;2024-02-15T00:16:26;100595.53;;;7.86;67.37
82353;BME280;71954;47.430;18.920;2024-02-15T00:18:54;100602.44;;;7.89;66.92
82353;BME280;71954;47.430;18.920;2024-02-15T00:21:22;100590.81;;;7.91;67.23
82353;BME280;71954;47.430;18.920;2024-02-15T00:23:52;100595.06;;;7.94;67.44
82353;BME280;71954;47.430;18.920;2024-02-15T00:26:22;100593.28;;;7.94;67.27
82353;BME280;71954;47.430;18.920;2024-02-15T00:28:49;100589.59;;;7.97;66.93
82353;BME280;71954;47.430;18.920;2024-02-15T00:31:15;100594.72;;;8.00;66.98
82353;BME280;71954;47.430;18.920;2024-02-15T00:33:42;100584.13;;;8.00;66.31
82353;BME280;71954;47.430;18.920;2024-02-15T00:36:10;100590.28;;;8.00;65.95
82353;BME280;71954;47.430;18.920;2024-02-15T00:38:37;100584.69;;;8.05;66.23
82353;BME280;71954;47.430;18.920;2024-02-15T00:41:05;100581.97;;;8.06;66.12
82353;BME280;71954;47.430;18.920;2024-02-15T00:43:34;100593.13;;;8.11;66.04
82353;BME280;71954;47.430;18.920;2024-02-15T00:46:02;100592.06;;;8.14;65.15
82353;BME280;71954;47.430;18.920;2024-02-15T00:48:29;100600.00;;;8.14;65.58
82353;BME280;71954;47.430;18.920;2024-02-15T00:50:56;100591.69;;;8.06;65.44
82353;BME280;71954;47.430;18.920;2024-02-15T00:53:24;100593.38;;;7.93;66.83
82353;BME280;71954;47.430;18.920;2024-02-15T00:55:51;100587.59;;;7.86;67.14
82353;BME280;71954;47.430;18.920;2024-02-15T00:58:18;100583.16;;;7.87;67.29
82353;BME280;71954;47.430;18.920;2024-02-15T01:00:45;100592.03;;;7.86;67.71
82353;BME280;71954;47.430;18.920;2024-02-15T01:03:11;100598.81;;;7.90;67.22
82353;BME280;71954;47.430;18.920;2024-02-15T01:05:38;100593.38;;;7.93;67.03
82353;BME280;71954;47.430;18.920;2024-02-15T01:08:05;100593.94;;;7.98;67.67
82353;BME280;71954;47.430;18.920;2024-02-15T01:10:32;100596.41;;;8.01;67.48
82353;BME280;71954;47.430;18.920;2024-02-15T01:13:00;100595.00;;;7.95;67.91
82353;BME280;71954;47.430;18.920;2024-02-15T01:15:27;100593.44;;;7.91;67.71
82353;BME280;71954;47.430;18.920;2024-02-15T01:17:54;100593.53;;;7.90;67.92
82353;BME280;71954;47.430;18.920;2024-02-15T01:20:21;100589.97;;;7.91;68.26
82353;BME280;71954;47.430;18.920;2024-02-15T01:22:48;100588.94;;;7.93;68.16
82353;BME280;71954;47.430;18.920;2024-02-15T01:25:14;100592.38;;;7.80;68.90
82353;BME280;71954;47.430;18.920;2024-02-15T01:27:42;100599.66;;;7.76;68.92
82353;BME280;71954;47.430;18.920;2024-02-15T01:30:09;100595.81;;;7.82;68.77
82353;BME280;71954;47.430;18.920;2024-02-15T01:32:37;100590.50;;;7.82;67.77
82353;BME280;71954;47.430;18.920;2024-02-15T01:35:03;100588.63;;;7.84;68.57
82353;BME280;71954;47.430;18.920;2024-02-15T01:37:30;100581.81;;;7.80;69.02
82353;BME280;71954;47.430;18.920;2024-02-15T01:39:57;100593.31;;;7.78;68.83
82353;BME280;71954;47.430;18.920;2024-02-15T01:42:23;100593.91;;;7.84;68.82
82353;BME280;71954;47.430;18.920;2024-02-15T01:44:50;100599.03;;;7.87;68.75
82353;BME280;71954;47.430;18.920;2024-02-15T01:47:19;100594.66;;;7.86;68.67
82353;BME280;71954;47.430;18.920;2024-02-15T01:49:46;100594.38;;;7.90;69.01
82353;BME280;71954;47.430;18.920;2024-02-15T01:52:16;100583.72;;;7.92;68.45
82353;BME280;71954;47.430;18.920;2024-02-15T01:54:44;100583.66;;;7.93;68.56
82353;BME280;71954;47.430;18.920;2024-02-15T01:57:12;100586.28;;;7.93;68.83
82353;BME280;71954;47.430;18.920;2024-02-15T01:59:39;100586.22;;;7.95;69.00
82353;BME280;71954;47.430;18.920;2024-02-15T02:02:08;100580.81;;;7.96;68.44
82353;BME280;71954;47.430;18.920;2024-02-15T02:04:37;100579.00;;;7.97;68.33
82353;BME280;71954;47.430;18.920;2024-02-15T02:07:04;100577.16;;;7.99;68.16
82353;BME280;71954;47.430;18.920;2024-02-15T02:09:31;100571.28;;;7.94;67.91
82353;BME280;71954;47.430;18.920;2024-02-15T02:11:58;100573.94;;;7.94;68.12
82353;BME280;71954;47.430;18.920;2024-02-15T02:14:26;100576.38;;;7.97;67.83
82353;BME280;71954;47.430;18.920;2024-02-15T02:17:13;100567.59;;;7.96;66.96
82353;BME280;71954;47.430;18.920;2024-02-15T02:19:41;100565.44;;;7.89;66.19
82353;BME280;71954;47.430;18.920;2024-02-15T02:22:09;100562.03;;;7.87;66.93
82353;BME280;71954;47.430;18.920;2024-02-15T02:24:40;100572.75;;;7.84;67.05
82353;BME280;71954;47.430;18.920;2024-02-15T02:27:13;100569.38;;;7.82;66.90
82353;BME280;71954;47.430;18.920;2024-02-15T02:29:43;100568.59;;;7.80;66.75
82353;BME280;71954;47.430;18.920;2024-02-15T02:32:13;100563.59;;;7.75;66.50
82353;BME280;71954;47.430;18.920;2024-02-15T02:34:39;100561.91;;;7.74;66.38
82353;BME280;71954;47.430;18.920;2024-02-15T02:37:07;100557.81;;;7.68;65.98
82353;BME280;71954;47.430;18.920;2024-02-15T02:39:35;100559.13;;;7.61;66.30
82353;BME280;71954;47.430;18.920;2024-02-15T02:42:11;100562.03;;;7.57;66.51
82353;BME280;71954;47.430;18.920;2024-02-15T02:44:37;100568.63;;;7.50;65.68
82353;BME280;71954;47.430;18.920;2024-02-15T02:47:04;100569.38;;;7.22;66.34
82353;BME280;71954;47.430;18.920;2024-02-15T02:49:31;100573.22;;;7.16;67.14
82353;BME280;71954;47.430;18.920;2024-02-15T02:51:58;100568.09;;;7.13;67.60
82353;BME280;71954;47.430;18.920;2024-02-15T02:54:24;100570.91;;;7.10;67.66
82353;BME280;71954;47.430;18.920;2024-02-15T02:56:51;100569.13;;;7.11;67.92
82353;BME280;71954;47.430;18.920;2024-02-15T02:59:17;100572.28;;;7.02;67.75
82353;BME280;71954;47.430;18.920;2024-02-15T03:01:44;100570.56;;;7.01;67.82
82353;BME280;71954;47.430;18.920;2024-02-15T03:04:11;100575.97;;;6.99;67.86
82353;BME280;71954;47.430;18.920;2024-02-15T03:06:38;100575.09;;;6.99;67.92
82353;BME280;71954;47.430;18.920;2024-02-15T03:09:08;100576.03;;;6.98;68.25
82353;BME280;71954;47.430;18.920;2024-02-15T03:11:36;100576.97;;;6.97;68.07
82353;BME280;71954;47.430;18.920;2024-02-15T03:14:03;100575.19;;;6.97;68.38
82353;BME280;71954;47.430;18.920;2024-02-15T03:16:33;100574.16;;;7.00;68.10
82353;BME280;71954;47.430;18.920;2024-02-15T03:19:00;100576.53;;;7.04;68.01
82353;BME280;71954;47.430;18.920;2024-02-15T03:21:31;100580.78;;;7.07;68.12
82353;BME280;71954;47.430;18.920;2024-02-15T03:23:58;100577.06;;;7.11;68.18
82353;BME280;71954;47.430;18.920;2024-02-15T03:26:31;100573.38;;;7.13;68.21
82353;BME280;71954;47.430;18.920;2024-02-15T03:29:05;100570.56;;;7.16;68.28
82353;BME280;71954;47.430;18.920;2024-02-15T03:31:33;100575.66;;;7.19;68.13
82353;BME280;71954;47.430;18.920;2024-02-15T03:33:59;100582.38;;;7.25;68.03
82353;BME280;71954;47.430;18.920;2024-02-15T03:36:27;100579.41;;;7.31;68.48
82353;BME280;71954;47.430;18.920;2024-02-15T03:38:55;100587.16;;;7.34;68.78
82353;BME280;71954;47.430;18.920;2024-02-15T03:41:22;100582.63;;;7.36;68.55
82353;BME280;71954;47.430;18.920;2024-02-15T03:43:49;100576.75;;;7.31;68.73
82353;BME280;71954;47.430;18.920;2024-02-15T03:46:16;100584.69;;;7.31;68.58
82353;BME280;71954;47.430;18.920;2024-02-15T03:48:43;100579.41;;;7.31;68.62
82353;BME280;71954;47.430;18.920;2024-02-15T03:51:10;100585.25;;;7.36;68.95
82353;BME280;71954;47.430;18.920;2024-02-15T03:53:37;100585.09;;;7.39;68.40
82353;BME280;71954;47.430;18.920;2024-02-15T03:56:04;100581.53;;;7.40;68.71
82353;BME280;71954;47.430;18.920;2024-02-15T03:58:31;100578.97;;;7.39;68.19
82353;BME280;71954;47.430;18.920;2024-02-15T04:00:59;100575.31;;;7.41;68.08
82353;BME280;71954;47.430;18.920;2024-02-15T04:03:26;100579.47;;;7.45;68.30
82353;BME280;71954;47.430;18.920;2024-02-15T04:05:52;100573.13;;;7.48;67.89
82353;BME280;71954;47.430;18.920;2024-02-15T04:08:19;100578.16;;;7.52;68.43
82353;BME280;71954;47.430;18.920;2024-02-15T04:10:46;100576.28;;;7.54;68.31
82353;BME280;71954;47.430;18.920;2024-02-15T04:13:17;100573.47;;;7.57;68.07
82353;BME280;71954;47.430;18.920;2024-02-15T04:15:43;100565.53;;;7.57;67.95
82353;BME280;71954;47.430;18.920;2024-02-15T04:18:10;100573.47;;;7.57;67.79
82353;BME280;71954;47.430;18.920;2024-02-15T04:20:39;100570.81;;;7.57;68.25
82353;BME280;71954;47.430;18.920;2024-02-15T04:23:11;100570.81;;;7.57;67.73
82353;BME280;71954;47.430;18.920;2024-02-15T04:25:38;100565.31;;;7.46;68.58
82353;BME280;71954;47.430;18.920;2024-02-15T04:28:05;100578.59;;;7.45;68.44
82353;BME280;71954;47.430;18.920;2024-02-15T04:30:33;100578.34;;;7.49;67.71
82353;BME280;71954;47.430;18.920;2024-02-15T04:33:01;100575.53;;;7.52;68.40
82353;BME280;71954;47.430;18.920;2024-02-15T04:35:28;100577.97;;;7.55;67.71
82353;BME280;71954;47.430;18.920;2024-02-15T04:37:57;100584.81;;;7.59;68.48
82353;BME280;71954;47.430;18.920;2024-02-15T04:40:24;100580.66;;;7.40;69.43
82353;BME280;71954;47.430;18.920;2024-02-15T04:42:50;100573.94;;;7.34;68.66
82353;BME280;71954;47.430;18.920;2024-02-15T04:45:17;100575.47;;;7.38;68.92
82353;BME280;71954;47.430;18.920;2024-02-15T04:47:45;100570.97;;;7.40;69.48
82353;BME280;71954;47.430;18.920;2024-02-15T04:50:13;100565.56;;;7.42;69.10
82353;BME280;71954;47.430;18.920;2024-02-15T04:52:40;100565.47;;;7.43;69.35
82353;BME280;71954;47.430;18.920;2024-02-15T04:55:06;100574.94;;;7.47;69.28
82353;BME280;71954;47.430;18.920;2024-02-15T04:57:33;100569.31;;;7.53;69.05
82353;BME280;71954;47.430;18.920;2024-02-15T05:00:03;100581.38;;;7.57;69.51
82353;BME280;71954;47.430;18.920;2024-02-15T05:02:38;100572.53;;;7.58;69.48
82353;BME280;71954;47.430;18.920;2024-02-15T05:05:08;100574.03;;;7.62;68.88
82353;BME280;71954;47.430;18.920;2024-02-15T05:07:35;100579.91;;;7.67;69.43
82353;BME280;71954;47.430;18.920;2024-02-15T05:10:04;100577.09;;;7.70;69.14
82353;BME280;71954;47.430;18.920;2024-02-15T05:12:32;100587.38;;;7.75;68.67
82353;BME280;71954;47.430;18.920;2024-02-15T05:15:02;100578.44;;;7.78;68.64
82353;BME280;71954;47.430;18.920;2024-02-15T05:17:38;100582.38;;;7.85;68.81
82353;BME280;71954;47.430;18.920;2024-02-15T05:20:09;100580.81;;;7.82;69.00
82353;BME280;71954;47.430;18.920;2024-02-15T05:22:41;100578.91;;;7.84;68.69
82353;BME280;71954;47.430;18.920;2024-02-15T05:25:17;100579.50;;;7.89;68.86
82353;BME280;71954;47.430;18.920;2024-02-15T05:27:49;100582.50;;;7.83;68.54
82353;BME280;71954;47.430;18.920;2024-02-15T05:30:16;100574.81;;;7.78;68.43
82353;BME280;71954;47.430;18.920;2024-02-15T05:32:43;100589.75;;;7.80;68.64
82353;BME280;71954;47.430;18.920;2024-02-15T05:35:12;100585.97;;;7.84;69.28
82353;BME280;71954;47.430;18.920;2024-02-15T05:37:39;100591.84;;;7.89;69.28
82353;BME280;71954;47.430;18.920;2024-02-15T05:40:06;100595.25;;;7.91;69.38
82353;BME280;71954;47.430;18.920;2024-02-15T05:42:33;100589.72;;;7.95;68.88
82353;BME280;71954;47.430;18.920;2024-02-15T05:45:40;100587.22;;;7.92;68.98
82353;BME280;71954;47.430;18.920;2024-02-15T05:48:06;100595.06;;;7.94;69.00
82353;BME280;71954;47.430;18.920;2024-02-15T05:50:34;100602.91;;;7.95;68.60
82353;BME280;71954;47.430;18.920;2024-02-15T05:53:01;100596.94;;;7.92;68.79
82353;BME280;71954;47.430;18.920;2024-02-15T05:55:28;100595.81;;;7.82;68.70
82353;BME280;71954;47.430;18.920;2024-02-15T05:57:55;100611.47;;;7.85;68.65
82353;BME280;71954;47.430;18.920;2024-02-15T06:00:22;100605.25;;;7.86;68.65
82353;BME280;71954;47.430;18.920;2024-02-15T06:02:49;100608.66;;;7.88;68.96
82353;BME280;71954;47.430;18.920;2024-02-15T06:05:18;100607.25;;;7.66;68.75
82353;BME280;71954;47.430;18.920;2024-02-15T06:07:46;100610.38;;;7.73;68.80
82353;BME280;71954;47.430;18.920;2024-02-15T06:10:14;100605.78;;;7.76;69.42
82353;BME280;71954;47.430;18.920;2024-02-15T06:12:42;100612.19;;;7.72;69.84
82353;BME280;71954;47.430;18.920;2024-02-15T06:15:09;100610.16;;;7.78;69.47
82353;BME280;71954;47.430;18.920;2024-02-15T06:17:42;100609.09;;;7.80;69.72
82353;BME280;71954;47.430;18.920;2024-02-15T06:20:12;100614.94;;;7.85;69.90
82353;BME280;71954;47.430;18.920;2024-02-15T06:22:40;100621.59;;;7.92;69.60
82353;BME280;71954;47.430;18.920;2024-02-15T06:25:08;100626.22;;;8.03;69.43
82353;BME280;71954;47.430;18.920;2024-02-15T06:27:37;100621.50;;;8.08;69.41
82353;BME280;71954;47.430;18.920;2024-02-15T06:30:08;100617.47;;;8.16;69.11
82353;BME280;71954;47.430;18.920;2024-02-15T06:32:54;100614.56;;;8.21;68.46
82353;BME280;71954;47.430;18.920;2024-02-15T06:35:40;100617.69;;;8.28;67.97
82353;BME280;71954;47.430;18.920;2024-02-15T06:38:25;100628.13;;;8.31;67.46
82353;BME280;71954;47.430;18.920;2024-02-15T06:41:10;100626.13;;;8.34;67.71
82353;BME280;71954;47.430;18.920;2024-02-15T06:43:37;100630.91;;;8.28;66.16
82353;BME280;71954;47.430;18.920;2024-02-15T06:46:06;100633.41;;;8.31;65.77
82353;BME280;71954;47.430;18.920;2024-02-15T06:48:33;100642.78;;;8.06;65.84
82353;BME280;71954;47.430;18.920;2024-02-15T06:51:00;100644.56;;;8.06;66.00
82353;BME280;71954;47.430;18.920;2024-02-15T06:53:26;100636.94;;;8.15;66.12
82353;BME280;71954;47.430;18.920;2024-02-15T06:55:53;100642.84;;;8.05;65.86
82353;BME280;71954;47.430;18.920;2024-02-15T06:58:20;100646.53;;;8.02;66.26
82353;BME280;71954;47.430;18.920;2024-02-15T07:00:48;100651.38;;;8.10;66.50
82353;BME280;71954;47.430;18.920;2024-02-15T07:03:16;100648.94;;;8.21;66.21
82353;BME280;71954;47.430;18.920;2024-02-15T07:05:43;100643.13;;;8.30;66.64
82353;BME280;71954;47.430;18.920;2024-02-15T07:08:10;100652.22;;;8.40;65.99
82353;BME280;71954;47.430;18.920;2024-02-15T07:10:38;100656.75;;;8.52;65.80
82353;BME280;71954;47.430;18.920;2024-02-15T07:13:07;100650.91;;;8.62;65.36
82353;BME280;71954;47.430;18.920;2024-02-15T07:15:34;100638.97;;;8.69;65.58
82353;BME280;71954;47.430;18.920;2024-02-15T07:18:05;100649.94;;;8.77;65.28
82353;BME280;71954;47.430;18.920;2024-02-15T07:20:33;100648.63;;;8.84;65.05
82353;BME280;71954;47.430;18.920;2024-02-15T07:23:00;100657.88;;;8.91;63.94
82353;BME280;71954;47.430;18.920;2024-02-15T07:25:27;100659.22;;;8.98;64.64
82353;BME280;71954;47.430;18.920;2024-02-15T07:27:54;100666.00;;;9.02;64.29
82353;BME280;71954;47.430;18.920;2024-02-15T07:30:20;100660.31;;;9.08;64.64
82353;BME280;71954;47.430;18.920;2024-02-15T07:32:51;100660.88;;;9.13;64.06
82353;BME280;71954;47.430;18.920;2024-02-15T07:35:18;100664.28;;;9.15;64.09
82353;BME280;71954;47.430;18.920;2024-02-15T07:37:54;100666.72;;;9.18;63.19
82353;BME280;71954;47.430;18.920;2024-02-15T07:40:22;100650.84;;;9.18;62.83
82353;BME280;71954;47.430;18.920;2024-02-15T07:42:49;100653.47;;;9.18;62.69
82353;BME280;71954;47.430;18.920;2024-02-15T07:45:15;100654.16;;;9.22;62.88
82353;BME280;71954;47.430;18.920;2024-02-15T07:47:43;100654.03;;;9.23;63.18
82353;BME280;71954;47.430;18.920;2024-02-15T07:50:15;100660.66;;;9.30;62.53
82353;BME280;71954;47.430;18.920;2024-02-15T07:52:46;100661.09;;;9.37;63.07
82353;BME280;71954;47.430;18.920;2024-02-15T07:55:14;100652.84;;;9.42;63.25
82353;BME280;71954;47.430;18.920;2024-02-15T07:57:41;100651.50;;;9.49;63.39
82353;BME280;71954;47.430;18.920;2024-02-15T08:00:08;100648.84;;;9.49;62.73
82353;BME280;71954;47.430;18.920;2024-02-15T08:02:38;100648.72;;;9.37;63.19
82353;BME280;71954;47.430;18.920;2024-02-15T08:05:09;100647.56;;;9.42;63.47
82353;BME280;71954;47.430;18.920;2024-02-15T08:07:46;100652.66;;;9.45;63.32
82353;BME280;71954;47.430;18.920;2024-02-15T08:10:14;100648.25;;;9.31;64.38
82353;BME280;71954;47.430;18.920;2024-02-15T08:12:41;100650.72;;;9.34;63.83
82353;BME280;71954;47.430;18.920;2024-02-15T08:15:10;100647.94;;;9.35;63.73
82353;BME280;71954;47.430;18.920;2024-02-15T08:17:43;100645.16;;;9.24;64.11
82353;BME280;71954;47.430;18.920;2024-02-15T08:20:13;100646.59;;;9.16;64.38
82353;BME280;71954;47.430;18.920;2024-02-15T08:22:40;100643.59;;;9.08;64.94
82353;BME280;71954;47.430;18.920;2024-02-15T08:25:11;100645.59;;;8.90;65.46
82353;BME280;71954;47.430;18.920;2024-02-15T08:27:43;100641.25;;;8.75;66.09
82353;BME280;71954;47.430;18.920;2024-02-15T08:30:12;100641.63;;;8.83;66.11
82353;BME280;71954;47.430;18.920;2024-02-15T08:32:40;100651.06;;;8.87;66.01
82353;BME280;71954;47.430;18.920;2024-02-15T08:35:09;100647.19;;;8.92;65.97
82353;BME280;71954;47.430;18.920;2024-02-15T08:37:37;100648.63;;;8.98;66.22
82353;BME280;71954;47.430;18.920;2024-02-15T08:40:07;100643.38;;;9.11;65.43
82353;BME280;71954;47.430;18.920;2024-02-15T08:42:41;100657.19;;;9.16;64.54
82353;BME280;71954;47.430;18.920;2024-02-15T08:45:08;100663.28;;;9.30;64.44
82353;BME280;71954;47.430;18.920;2024-02-15T08:47:41;100659.66;;;9.46;64.38
82353;BME280;71954;47.430;18.920;2024-02-15T08:50:09;100668.41;;;9.60;63.76
82353;BME280;71954;47.430;18.920;2024-02-15T08:52:37;100667.38;;;9.63;62.92
82353;BME280;71954;47.430;18.920;2024-02-15T08:55:11;100663.06;;;9.74;62.62
82353;BME280;71954;47.430;18.920;2024-02-15T08:57:41;100655.09;;;9.74;62.40
82353;BME280;71954;47.430;18.920;2024-02-15T09:00:10;100664.75;;;9.75;62.43
82353;BME280;71954;47.430;18.920;2024-02-15T09:02:43;100672.19;;;9.83;61.89
82353;BME280;71954;47.430;18.920;2024-02-15T09:05:11;100671.00;;;9.74;61.78
82353;BME280;71954;47.430;18.920;2024-02-15T09:07:42;100670.31;;;9.58;62.74
82353;BME280;71954;47.430;18.920;2024-02-15T09:10:10;100666.44;;;9.64;62.75
82353;BME280;71954;47.430;18.920;2024-02-15T09:12:37;100666.22;;;9.67;62.84
82353;BME280;71954;47.430;18.920;2024-02-15T09:15:08;100659.34;;;9.77;62.03
82353;BME280;71954;47.430;18.920;2024-02-15T09:17:39;100662.56;;;9.82;62.12
82353;BME280;71954;47.430;18.920;2024-02-15T09:22:34;100661.94;;;9.91;61.32
82353;BME280;71954;47.430;18.920;2024-02-15T09:25:02;100664.50;;;9.93;61.99
82353;BME280;71954;47.430;18.920;2024-02-15T09:27:29;100666.81;;;9.97;61.36
82353;BME280;71954;47.430;18.920;2024-02-15T09:29:56;100673.06;;;9.57;62.37
82353;BME280;71954;47.430;18.920;2024-02-15T09:32:23;100668.84;;;9.67;61.96
82353;BME280;71954;47.430;18.920;2024-02-15T09:34:49;100672.59;;;9.77;61.86
82353;BME280;71954;47.430;18.920;2024-02-15T09:37:16;100676.22;;;9.89;61.82
82353;BME280;71954;47.430;18.920;2024-02-15T09:39:43;100678.06;;;10.01;61.64
82353;BME280;71954;47.430;18.920;2024-02-15T09:42:09;100668.75;;;10.08;61.25
82353;BME280;71954;47.430;18.920;2024-02-15T09:44:37;100662.78;;;10.18;60.48
82353;BME280;71954;47.430;18.920;2024-02-15T09:47:05;100659.72;;;10.25;60.52
82353;BME280;71954;47.430;18.920;2024-02-15T09:49:37;100662.56;;;10.34;60.20
82353;BME280;71954;47.430;18.920;2024-02-15T09:52:07;100656.03;;;10.13;60.26
82353;BME280;71954;47.430;18.920;2024-02-15T09:54:43;100660.13;;;10.18;61.11
82353;BME280;71954;47.430;18.920;2024-02-15T09:57:11;100657.47;;;10.31;60.65
82353;BME280;71954;47.430;18.920;2024-02-15T09:59:38;100659.41;;;10.42;61.07
82353;BME280;71954;47.430;18.920;2024-02-15T10:02:07;100656.00;;;10.52;60.02
82353;BME280;71954;47.430;18.920;2024-02-15T10:04:39;100656.31;;;10.60;59.54
82353;BME280;71954;47.430;18.920;2024-02-15T10:07:06;100661.63;;;10.48;59.03
82353;BME280;71954;47.430;18.920;2024-02-15T10:09:36;100659.94;;;10.59;59.05
82353;BME280;71954;47.430;18.920;2024-02-15T10:12:09;100657.28;;;10.72;59.53
82353;BME280;71954;47.430;18.920;2024-02-15T10:14:36;100658.50;;;10.79;59.17
82353;BME280;71954;47.430;18.920;2024-02-15T10:17:06;100657.38;;;10.83;59.03
82353;BME280;71954;47.430;18.920;2024-02-15T10:19:43;100657.66;;;10.91;58.33
82353;BME280;71954;47.430;18.920;2024-02-15T10:22:12;100657.22;;;10.97;57.86
82353;BME280;71954;47.430;18.920;2024-02-15T10:24:41;100652.00;;;11.09;57.40
82353;BME280;71954;47.430;18.920;2024-02-15T10:27:08;100652.84;;;11.09;57.19
82353;BME280;71954;47.430;18.920;2024-02-15T10:29:37;100652.84;;;11.09;57.61
82353;BME280;71954;47.430;18.920;2024-02-15T10:32:05;100648.69;;;11.18;58.08
82353;BME280;71954;47.430;18.920;2024-02-15T10:34:44;100646.44;;;11.24;56.90
82353;BME280;71954;47.430;18.920;2024-02-15T10:37:14;100654.91;;;11.29;56.72
82353;BME280;71954;47.430;18.920;2024-02-15T10:39:45;100655.22;;;11.37;56.13
82353;BME280;71954;47.430;18.920;2024-02-15T10:42:13;100651.25;;;11.43;56.84
82353;BME280;71954;47.430;18.920;2024-02-15T10:44:42;100649.44;;;11.43;56.77
82353;BME280;71954;47.430;18.920;2024-02-15T10:47:09;100654.66;;;11.45;56.53
82353;BME280;71954;47.430;18.920;2024-02-15T10:49:36;100649.09;;;11.48;56.51
82353;BME280;71954;47.430;18.920;2024-02-15T10:52:04;100649.09;;;11.48;55.45
82353;BME280;71954;47.430;18.920;2024-02-15T10:54:41;100646.00;;;11.54;56.13
82353;BME280;71954;47.430;18.920;2024-02-15T10:57:11;100641.53;;;11.31;56.52
82353;BME280;71954;47.430;18.920;2024-02-15T10:59:54;100642.72;;;11.27;57.21
82353;BME280;71954;47.430;18.920;2024-02-15T11:02:31;100646.63;;;11.21;57.32
82353;BME280;71954;47.430;18.920;2024-02-15T11:07:31;100640.84;;;11.40;57.44
82353;BME280;71954;47.430;18.920;2024-02-15T11:09:59;100638.63;;;11.34;56.70
82353;BME280;71954;47.430;18.920;2024-02-15T11:12:27;100641.88;;;11.50;57.08
82353;BME280;71954;47.430;18.920;2024-02-15T11:14:54;100632.69;;;11.54;57.41
82353;BME280;71954;47.430;18.920;2024-02-15T11:20:07;100629.31;;;11.52;55.71
82353;BME280;71954;47.430;18.920;2024-02-15T11:22:36;100623.97;;;11.52;55.09
82353;BME280;71954;47.430;18.920;2024-02-15T11:25:06;100622.06;;;11.54;55.59
82353;BME280;71954;47.430;18.920;2024-02-15T11:27:35;100624.38;;;11.59;55.48
82353;BME280;71954;47.430;18.920;2024-02-15T11:30:10;100626.72;;;11.63;55.15
82353;BME280;71954;47.430;18.920;2024-02-15T11:35:11;100619.06;;;11.35;54.32
82353;BME280;71954;47.430;18.920;2024-02-15T11:43:08;100632.78;;;11.29;54.82
82353;BME280;71954;47.430;18.920;2024-02-15T11:45:37;100630.88;;;11.31;54.89
82353;BME280;71954;47.430;18.920;2024-02-15T11:48:09;100623.66;;;11.33;55.40
82353;BME280;71954;47.430;18.920;2024-02-15T11:50:40;100617.56;;;11.43;55.21
82353;BME280;71954;47.430;18.920;2024-02-15T11:53:08;100616.69;;;11.43;54.66
82353;BME280;71954;47.430;18.920;2024-02-15T11:55:40;100616.41;;;11.35;54.58
82353;BME280;71954;47.430;18.920;2024-02-15T11:58:08;100618.72;;;11.39;54.00
82353;BME280;71954;47.430;18.920;2024-02-15T12:00:36;100614.66;;;11.47;54.55
82353;BME280;71954;47.430;18.920;2024-02-15T12:03:23;100609.72;;;11.53;54.06
82353;BME280;71954;47.430;18.920;2024-02-15T12:06:30;100605.16;;;11.55;54.23
82353;BME280;71954;47.430;18.920;2024-02-15T12:09:19;100605.09;;;11.68;53.76
82353;BME280;71954;47.430;18.920;2024-02-15T12:12:05;100600.06;;;11.52;53.52
82353;BME280;71954;47.430;18.920;2024-02-15T12:15:01;100607.78;;;11.44;53.88
82353;BME280;71954;47.430;18.920;2024-02-15T12:17:46;100599.56;;;11.47;53.59
82353;BME280;71954;47.430;18.920;2024-02-15T12:20:32;100590.63;;;11.48;53.05
82353;BME280;71954;47.430;18.920;2024-02-15T12:22:59;100595.03;;;11.60;53.12
82353;BME280;71954;47.430;18.920;2024-02-15T12:25:27;100592.28;;;11.38;53.00
82353;BME280;71954;47.430;18.920;2024-02-15T12:27:59;100589.22;;;11.31;52.93
82353;BME280;71954;47.430;18.920;2024-02-15T12:30:32;100586.91;;;11.27;52.99
82353;BME280;71954;47.430;18.920;2024-02-15T12:33:09;100591.78;;;11.33;52.70
82353;BME280;71954;47.430;18.920;2024-02-15T12:35:38;100588.13;;;11.34;52.15
82353;BME280;71954;47.430;18.920;2024-02-15T12:38:04;100577.50;;;11.34;53.46
82353;BME280;71954;47.430;18.920;2024-02-15T12:40:33;100581.19;;;11.44;53.54
82353;BME280;71954;47.430;18.920;2024-02-15T12:43:00;100572.97;;;11.47;52.93
82353;BME280;71954;47.430;18.920;2024-02-15T12:45:27;100577.69;;;11.43;52.71
82353;BME280;71954;47.430;18.920;2024-02-15T12:47:56;100575.41;;;11.50;52.91
82353;BME280;71954;47.430;18.920;2024-02-15T12:50:29;100578.47;;;11.33;52.87
82353;BME280;71954;47.430;18.920;2024-02-15T12:52:56;100572.13;;;11.47;53.05
82353;BME280;71954;47.430;18.920;2024-02-15T12:55:35;100581.34;;;11.54;52.90
82353;BME280;71954;47.430;18.920;2024-02-15T12:58:04;100580.59;;;11.52;52.51
82353;BME280;71954;47.430;18.920;2024-02-15T13:00:36;100582.25;;;11.41;52.55
82353;BME280;71954;47.430;18.920;2024-02-15T13:03:07;100581.75;;;11.36;52.58
82353;BME280;71954;47.430;18.920;2024-02-15T13:05:38;100583.84;;;11.44;51.99
82353;BME280;71954;47.430;18.920;2024-02-15T13:08:07;100581.91;;;11.46;52.32
82353;BME280;71954;47.430;18.920;2024-02-15T13:10:40;100585.31;;;11.48;52.05
82353;BME280;71954;47.430;18.920;2024-02-15T13:13:07;100582.28;;;11.53;52.25
82353;BME280;71954;47.430;18.920;2024-02-15T13:15:38;100586.31;;;11.58;51.96